sensor_id;sensor_type;location;lat;lon;timestamp;temperature;humidity
26186;DHT22;20067;48.764;9.176;2023-06-14T00:00:47;18.00;62.80
26186;DHT22;20067;48.764;9.176;2023-06-14T00:03:14;18.30;61.70
26186;DHT22;20067;48.764;9.176;2023-06-14T00:05:43;18.00;62.70
26186;DHT22;20067;48.764;9.176;2023-06-14T00:08:09;18.10;62.40
26186;DHT22;20067;48.764;9.176;2023-06-14T00:10:36;18.10;63.10
26186;DHT22;20067;48.764;9.176;2023-06-14T00:13:02;18.00;62.90
26186;DHT22;20067;48.764;9.176;2023-06-14T00:15:30;18.10;63.00
26186;DHT22;20067;48.764;9.176;2023-06-14T00:17:57;18.20;62.90
26186;DHT22;20067;48.764;9.176;2023-06-14T00:20:26;18.30;62.70
26186;DHT22;20067;48.764;9.176;2023-06-14T00:22:52;18.10;62.20
26186;DHT22;20067;48.764;9.176;2023-06-14T00:25:17;18.10;62.50
26186;DHT22;20067;48.764;9.176;2023-06-14T00:27:43;17.50;63.90
26186;DHT22;20067;48.764;9.176;2023-06-14T00:30:09;17.60;64.00
26186;DHT22;20067;48.764;9.176;2023-06-14T00:32:35;17.60;64.00
26186;DHT22;20067;48.764;9.176;2023-06-14T00:35:00;17.90;63.00
26186;DHT22;20067;48.764;9.176;2023-06-14T00:37:26;17.90;62.90
26186;DHT22;20067;48.764;9.176;2023-06-14T00:39:51;17.80;63.20
26186;DHT22;20067;48.764;9.176;2023-06-14T00:42:27;17.70;63.70
26186;DHT22;20067;48.764;9.176;2023-06-14T00:44:53;17.50;64.00
26186;DHT22;20067;48.764;9.176;2023-06-14T00:47:20;17.30;64.70
26186;DHT22;20067;48.764;9.176;2023-06-14T00:49:47;17.40;64.80
26186;DHT22;20067;48.764;9.176;2023-06-14T00:52:13;17.20;64.90
26186;DHT22;20067;48.764;9.176;2023-06-14T00:54:40;17.30;65.40
26186;DHT22;20067;48.764;9.176;2023-06-14T00:57:10;17.40;64.80
26186;DHT22;20067;48.764;9.176;2023-06-14T00:59:54;17.50;65.10
26186;DHT22;20067;48.764;9.176;2023-06-14T01:02:20;17.40;65.40
26186;DHT22;20067;48.764;9.176;2023-06-14T01:04:48;17.40;65.30
26186;DHT22;20067;48.764;9.176;2023-06-14T01:07:23;17.30;65.40
26186;DHT22;20067;48.764;9.176;2023-06-14T01:13:01;17.10;65.70
26186;DHT22;20067;48.764;9.176;2023-06-14T01:15:30;17.30;66.00
26186;DHT22;20067;48.764;9.176;2023-06-14T01:17:56;17.30;65.60
26186;DHT22;20067;48.764;9.176;2023-06-14T01:20:29;17.30;65.60
26186;DHT22;20067;48.764;9.176;2023-06-14T01:22:55;17.20;65.90
26186;DHT22;20067;48.764;9.176;2023-06-14T01:25:21;17.30;65.60
26186;DHT22;20067;48.764;9.176;2023-06-14T01:27:55;16.90;66.10
26186;DHT22;20067;48.764;9.176;2023-06-14T01:30:23;16.90;66.50
26186;DHT22;20067;48.764;9.176;2023-06-14T01:32:52;17.00;66.90
26186;DHT22;20067;48.764;9.176;2023-06-14T01:35:18;17.00;66.60
26186;DHT22;20067;48.764;9.176;2023-06-14T01:37:47;17.20;66.20
26186;DHT22;20067;48.764;9.176;2023-06-14T01:40:15;17.10;65.90
26186;DHT22;20067;48.764;9.176;2023-06-14T01:42:41;17.20;65.80
26186;DHT22;20067;48.764;9.176;2023-06-14T01:45:09;17.00;66.10
26186;DHT22;20067;48.764;9.176;2023-06-14T01:47:36;17.00;66.50
26186;DHT22;20067;48.764;9.176;2023-06-14T01:50:05;16.80;66.90
26186;DHT22;20067;48.764;9.176;2023-06-14T01:52:31;16.50;67.50
26186;DHT22;20067;48.764;9.176;2023-06-14T01:54:57;16.40;68.30
26186;DHT22;20067;48.764;9.176;2023-06-14T01:57:33;16.00;68.90
26186;DHT22;20067;48.764;9.176;2023-06-14T02:00:05;16.10;69.10
26186;DHT22;20067;48.764;9.176;2023-06-14T02:02:38;16.20;68.70
26186;DHT22;20067;48.764;9.176;2023-06-14T02:05:04;16.50;68.20
26186;DHT22;20067;48.764;9.176;2023-06-14T02:07:30;16.40;67.90
26186;DHT22;20067;48.764;9.176;2023-06-14T02:09:55;16.40;68.00
26186;DHT22;20067;48.764;9.176;2023-06-14T02:12:21;16.50;67.80
26186;DHT22;20067;48.764;9.176;2023-06-14T02:14:46;16.30;68.40
26186;DHT22;20067;48.764;9.176;2023-06-14T02:17:12;15.80;69.70
26186;DHT22;20067;48.764;9.176;2023-06-14T02:19:37;15.70;70.30
26186;DHT22;20067;48.764;9.176;2023-06-14T02:22:04;16.10;69.60
26186;DHT22;20067;48.764;9.176;2023-06-14T02:24:29;16.40;68.50
26186;DHT22;20067;48.764;9.176;2023-06-14T02:26:55;16.40;68.40
26186;DHT22;20067;48.764;9.176;2023-06-14T02:29:21;16.10;69.00
26186;DHT22;20067;48.764;9.176;2023-06-14T02:31:46;15.80;70.00
26186;DHT22;20067;48.764;9.176;2023-06-14T02:34:14;15.90;70.00
26186;DHT22;20067;48.764;9.176;2023-06-14T02:36:39;15.90;69.80
26186;DHT22;20067;48.764;9.176;2023-06-14T02:39:07;16.10;69.00
26186;DHT22;20067;48.764;9.176;2023-06-14T02:41:34;16.30;68.90
26186;DHT22;20067;48.764;9.176;2023-06-14T02:44:00;16.50;68.30
26186;DHT22;20067;48.764;9.176;2023-06-14T02:46:26;16.30;68.70
26186;DHT22;20067;48.764;9.176;2023-06-14T02:48:51;15.70;70.10
26186;DHT22;20067;48.764;9.176;2023-06-14T02:51:17;15.60;70.80
26186;DHT22;20067;48.764;9.176;2023-06-14T02:53:42;15.90;70.40
26186;DHT22;20067;48.764;9.176;2023-06-14T02:56:09;16.10;69.60
26186;DHT22;20067;48.764;9.176;2023-06-14T02:58:36;16.20;69.30
26186;DHT22;20067;48.764;9.176;2023-06-14T03:01:02;15.90;70.20
26186;DHT22;20067;48.764;9.176;2023-06-14T03:03:29;16.00;70.10
26186;DHT22;20067;48.764;9.176;2023-06-14T03:05:55;16.10;69.60
26186;DHT22;20067;48.764;9.176;2023-06-14T03:08:22;16.30;69.30
26186;DHT22;20067;48.764;9.176;2023-06-14T03:10:53;16.40;68.80
26186;DHT22;20067;48.764;9.176;2023-06-14T03:13:18;16.30;69.00
26186;DHT22;20067;48.764;9.176;2023-06-14T03:15:48;16.00;69.60
26186;DHT22;20067;48.764;9.176;2023-06-14T03:18:16;15.70;70.30
26186;DHT22;20067;48.764;9.176;2023-06-14T03:20:42;15.70;70.50
26186;DHT22;20067;48.764;9.176;2023-06-14T03:23:11;15.60;70.80
26186;DHT22;20067;48.764;9.176;2023-06-14T03:25:37;15.20;71.80
26186;DHT22;20067;48.764;9.176;2023-06-14T03:28:04;14.90;73.10
26186;DHT22;20067;48.764;9.176;2023-06-14T03:30:31;14.90;73.10
26186;DHT22;20067;48.764;9.176;2023-06-14T03:32:57;15.20;72.70
26186;DHT22;20067;48.764;9.176;2023-06-14T03:35:23;15.10;72.30
26186;DHT22;20067;48.764;9.176;2023-06-14T03:37:49;15.40;72.20
26186;DHT22;20067;48.764;9.176;2023-06-14T03:40:17;15.70;71.10
26186;DHT22;20067;48.764;9.176;2023-06-14T03:42:43;15.20;72.30
26186;DHT22;20067;48.764;9.176;2023-06-14T03:45:09;15.00;72.80
26186;DHT22;20067;48.764;9.176;2023-06-14T03:47:35;15.10;72.80
26186;DHT22;20067;48.764;9.176;2023-06-14T03:50:02;15.30;72.40
26186;DHT22;20067;48.764;9.176;2023-06-14T03:52:28;15.60;71.70
26186;DHT22;20067;48.764;9.176;2023-06-14T03:54:54;15.70;71.50
26186;DHT22;20067;48.764;9.176;2023-06-14T03:57:20;15.60;71.60
26186;DHT22;20067;48.764;9.176;2023-06-14T03:59:45;15.60;71.40
26186;DHT22;20067;48.764;9.176;2023-06-14T04:02:12;15.40;72.30
26186;DHT22;20067;48.764;9.176;2023-06-14T04:04:41;15.30;72.20
26186;DHT22;20067;48.764;9.176;2023-06-14T04:07:10;15.30;72.90
26186;DHT22;20067;48.764;9.176;2023-06-14T04:09:37;15.20;73.20
26186;DHT22;20067;48.764;9.176;2023-06-14T04:12:03;15.40;72.60
26186;DHT22;20067;48.764;9.176;2023-06-14T04:14:29;15.40;72.90
26186;DHT22;20067;48.764;9.176;2023-06-14T04:16:56;15.30;73.10
26186;DHT22;20067;48.764;9.176;2023-06-14T04:19:22;15.60;72.10
26186;DHT22;20067;48.764;9.176;2023-06-14T04:21:47;15.30;73.10
26186;DHT22;20067;48.764;9.176;2023-06-14T04:24:13;15.60;72.20
26186;DHT22;20067;48.764;9.176;2023-06-14T04:26:49;15.50;73.00
26186;DHT22;20067;48.764;9.176;2023-06-14T04:29:15;15.30;73.10
26186;DHT22;20067;48.764;9.176;2023-06-14T04:31:45;15.30;73.20
26186;DHT22;20067;48.764;9.176;2023-06-14T04:34:11;15.10;73.70
26186;DHT22;20067;48.764;9.176;2023-06-14T04:36:42;15.30;73.40
26186;DHT22;20067;48.764;9.176;2023-06-14T04:39:17;15.30;73.20
26186;DHT22;20067;48.764;9.176;2023-06-14T04:41:49;15.30;73.90
26186;DHT22;20067;48.764;9.176;2023-06-14T04:44:19;15.90;72.60
26186;DHT22;20067;48.764;9.176;2023-06-14T04:46:45;16.10;72.00
26186;DHT22;20067;48.764;9.176;2023-06-14T04:49:20;16.00;72.10
26186;DHT22;20067;48.764;9.176;2023-06-14T04:54:23;16.30;70.90
26186;DHT22;20067;48.764;9.176;2023-06-14T04:56:51;16.40;71.20
26186;DHT22;20067;48.764;9.176;2023-06-14T04:59:18;16.30;71.20
26186;DHT22;20067;48.764;9.176;2023-06-14T05:01:44;16.60;71.10
26186;DHT22;20067;48.764;9.176;2023-06-14T05:04:14;16.50;71.30
26186;DHT22;20067;48.764;9.176;2023-06-14T05:06:41;16.40;71.60
26186;DHT22;20067;48.764;9.176;2023-06-14T05:09:07;16.20;72.70
26186;DHT22;20067;48.764;9.176;2023-06-14T05:11:33;16.40;72.60
26186;DHT22;20067;48.764;9.176;2023-06-14T05:13:58;16.60;71.60
26186;DHT22;20067;48.764;9.176;2023-06-14T05:16:24;16.70;71.50
26186;DHT22;20067;48.764;9.176;2023-06-14T05:18:51;16.60;71.10
26186;DHT22;20067;48.764;9.176;2023-06-14T05:21:17;16.70;71.70
26186;DHT22;20067;48.764;9.176;2023-06-14T05:23:44;16.70;71.40
26186;DHT22;20067;48.764;9.176;2023-06-14T05:26:10;17.00;70.70
26186;DHT22;20067;48.764;9.176;2023-06-14T05:28:36;17.20;70.00
26186;DHT22;20067;48.764;9.176;2023-06-14T05:31:02;17.40;69.40
26186;DHT22;20067;48.764;9.176;2023-06-14T05:33:28;17.40;68.20
26186;DHT22;20067;48.764;9.176;2023-06-14T05:35:54;17.40;67.30
26186;DHT22;20067;48.764;9.176;2023-06-14T05:38:20;17.20;67.40
26186;DHT22;20067;48.764;9.176;2023-06-14T05:40:46;17.00;66.90
26186;DHT22;20067;48.764;9.176;2023-06-14T05:43:12;17.10;68.00
26186;DHT22;20067;48.764;9.176;2023-06-14T05:45:39;17.20;67.00
26186;DHT22;20067;48.764;9.176;2023-06-14T05:48:05;17.30;67.40
26186;DHT22;20067;48.764;9.176;2023-06-14T05:50:31;17.40;66.20
26186;DHT22;20067;48.764;9.176;2023-06-14T05:52:56;17.40;66.10
26186;DHT22;20067;48.764;9.176;2023-06-14T05:55:22;17.30;66.10
26186;DHT22;20067;48.764;9.176;2023-06-14T05:57:48;17.20;65.60
26186;DHT22;20067;48.764;9.176;2023-06-14T06:00:14;17.40;65.20
26186;DHT22;20067;48.764;9.176;2023-06-14T06:02:44;17.90;64.40
26186;DHT22;20067;48.764;9.176;2023-06-14T06:05:11;17.60;64.60
26186;DHT22;20067;48.764;9.176;2023-06-14T06:07:37;17.60;65.00
26186;DHT22;20067;48.764;9.176;2023-06-14T06:10:04;17.70;64.20
26186;DHT22;20067;48.764;9.176;2023-06-14T06:12:30;17.80;64.10
26186;DHT22;20067;48.764;9.176;2023-06-14T06:14:56;17.90;64.30
26186;DHT22;20067;48.764;9.176;2023-06-14T06:17:22;18.20;64.20
26186;DHT22;20067;48.764;9.176;2023-06-14T06:19:47;18.60;63.20
26186;DHT22;20067;48.764;9.176;2023-06-14T06:22:13;18.60;62.40
26186;DHT22;20067;48.764;9.176;2023-06-14T06:24:38;18.60;63.10
26186;DHT22;20067;48.764;9.176;2023-06-14T06:27:04;18.60;62.90
26186;DHT22;20067;48.764;9.176;2023-06-14T06:29:31;18.50;62.40
26186;DHT22;20067;48.764;9.176;2023-06-14T06:31:56;18.40;62.40
26186;DHT22;20067;48.764;9.176;2023-06-14T06:34:22;18.40;62.60
26186;DHT22;20067;48.764;9.176;2023-06-14T06:36:47;18.50;62.40
26186;DHT22;20067;48.764;9.176;2023-06-14T06:39:13;18.60;62.60
26186;DHT22;20067;48.764;9.176;2023-06-14T06:41:40;18.60;62.80
26186;DHT22;20067;48.764;9.176;2023-06-14T06:44:06;18.80;63.20
26186;DHT22;20067;48.764;9.176;2023-06-14T06:46:33;18.60;63.30
26186;DHT22;20067;48.764;9.176;2023-06-14T06:48:59;19.00;63.40
26186;DHT22;20067;48.764;9.176;2023-06-14T06:51:25;18.90;62.40
26186;DHT22;20067;48.764;9.176;2023-06-14T06:53:54;18.70;63.20
26186;DHT22;20067;48.764;9.176;2023-06-14T06:56:21;18.70;64.00
26186;DHT22;20067;48.764;9.176;2023-06-14T06:58:49;18.90;63.90
26186;DHT22;20067;48.764;9.176;2023-06-14T07:01:15;19.20;63.60
26186;DHT22;20067;48.764;9.176;2023-06-14T07:03:41;19.30;63.00
26186;DHT22;20067;48.764;9.176;2023-06-14T07:06:07;19.40;63.00
26186;DHT22;20067;48.764;9.176;2023-06-14T07:08:32;19.30;62.30
26186;DHT22;20067;48.764;9.176;2023-06-14T07:10:58;19.40;62.20
26186;DHT22;20067;48.764;9.176;2023-06-14T07:13:23;19.40;61.00
26186;DHT22;20067;48.764;9.176;2023-06-14T07:15:49;19.10;61.40
26186;DHT22;20067;48.764;9.176;2023-06-14T07:18:15;19.30;62.20
26186;DHT22;20067;48.764;9.176;2023-06-14T07:20:41;19.80;61.80
26186;DHT22;20067;48.764;9.176;2023-06-14T07:23:08;19.90;60.80
26186;DHT22;20067;48.764;9.176;2023-06-14T07:25:34;20.00;60.70
26186;DHT22;20067;48.764;9.176;2023-06-14T07:27:59;20.00;59.70
26186;DHT22;20067;48.764;9.176;2023-06-14T07:30:25;20.00;60.40
26186;DHT22;20067;48.764;9.176;2023-06-14T07:32:53;19.90;60.10
26186;DHT22;20067;48.764;9.176;2023-06-14T07:35:18;20.00;60.20
26186;DHT22;20067;48.764;9.176;2023-06-14T07:37:44;20.10;60.00
26186;DHT22;20067;48.764;9.176;2023-06-14T07:40:12;20.50;59.50
26186;DHT22;20067;48.764;9.176;2023-06-14T07:42:38;20.50;60.50
26186;DHT22;20067;48.764;9.176;2023-06-14T07:45:04;21.00;59.40
26186;DHT22;20067;48.764;9.176;2023-06-14T07:47:30;20.90;58.00
26186;DHT22;20067;48.764;9.176;2023-06-14T07:49:56;20.80;58.60
26186;DHT22;20067;48.764;9.176;2023-06-14T07:52:22;20.90;59.60
26186;DHT22;20067;48.764;9.176;2023-06-14T07:54:47;21.00;57.70
26186;DHT22;20067;48.764;9.176;2023-06-14T07:57:13;20.80;57.90
26186;DHT22;20067;48.764;9.176;2023-06-14T07:59:38;20.60;58.50
26186;DHT22;20067;48.764;9.176;2023-06-14T08:02:04;20.50;58.10
26186;DHT22;20067;48.764;9.176;2023-06-14T08:04:31;20.70;59.30
26186;DHT22;20067;48.764;9.176;2023-06-14T08:06:57;20.70;58.40
26186;DHT22;20067;48.764;9.176;2023-06-14T08:09:22;20.70;58.20
26186;DHT22;20067;48.764;9.176;2023-06-14T08:11:49;21.10;58.40
26186;DHT22;20067;48.764;9.176;2023-06-14T08:14:15;21.40;57.40
26186;DHT22;20067;48.764;9.176;2023-06-14T08:16:41;21.60;57.60
26186;DHT22;20067;48.764;9.176;2023-06-14T08:19:06;22.80;55.90
26186;DHT22;20067;48.764;9.176;2023-06-14T08:21:32;23.30;53.90
26186;DHT22;20067;48.764;9.176;2023-06-14T08:23:59;25.00;52.30
26186;DHT22;20067;48.764;9.176;2023-06-14T08:26:25;25.30;50.80
26186;DHT22;20067;48.764;9.176;2023-06-14T08:28:54;25.20;51.60
26186;DHT22;20067;48.764;9.176;2023-06-14T08:31:20;25.30;52.70
26186;DHT22;20067;48.764;9.176;2023-06-14T08:33:46;24.50;53.10
26186;DHT22;20067;48.764;9.176;2023-06-14T08:36:12;24.70;52.40
26186;DHT22;20067;48.764;9.176;2023-06-14T08:38:38;24.50;52.80
26186;DHT22;20067;48.764;9.176;2023-06-14T08:41:05;24.80;52.90
26186;DHT22;20067;48.764;9.176;2023-06-14T08:43:32;24.40;52.70
26186;DHT22;20067;48.764;9.176;2023-06-14T08:46:03;25.80;50.80
26186;DHT22;20067;48.764;9.176;2023-06-14T08:48:30;25.10;51.20
26186;DHT22;20067;48.764;9.176;2023-06-14T08:51:02;24.60;52.70
26186;DHT22;20067;48.764;9.176;2023-06-14T08:53:31;24.30;53.10
26186;DHT22;20067;48.764;9.176;2023-06-14T08:56:01;24.30;53.70
26186;DHT22;20067;48.764;9.176;2023-06-14T08:58:28;25.70;52.80
26186;DHT22;20067;48.764;9.176;2023-06-14T09:00:57;24.80;52.80
26186;DHT22;20067;48.764;9.176;2023-06-14T09:03:23;24.00;55.20
26186;DHT22;20067;48.764;9.176;2023-06-14T09:05:54;24.30;53.40
26186;DHT22;20067;48.764;9.176;2023-06-14T09:08:20;24.10;53.60
26186;DHT22;20067;48.764;9.176;2023-06-14T09:10:47;23.90;54.80
26186;DHT22;20067;48.764;9.176;2023-06-14T09:13:13;24.00;52.70
26186;DHT22;20067;48.764;9.176;2023-06-14T09:15:39;23.40;54.60
26186;DHT22;20067;48.764;9.176;2023-06-14T09:18:04;23.40;54.70
26186;DHT22;20067;48.764;9.176;2023-06-14T09:20:32;24.00;55.00
26186;DHT22;20067;48.764;9.176;2023-06-14T09:22:58;25.10;52.20
26186;DHT22;20067;48.764;9.176;2023-06-14T09:25:23;24.50;54.00
26186;DHT22;20067;48.764;9.176;2023-06-14T09:27:51;24.40;52.20
26186;DHT22;20067;48.764;9.176;2023-06-14T09:30:20;24.60;52.60
26186;DHT22;20067;48.764;9.176;2023-06-14T09:32:46;24.50;53.00
26186;DHT22;20067;48.764;9.176;2023-06-14T09:35:11;25.50;52.50
26186;DHT22;20067;48.764;9.176;2023-06-14T09:37:37;25.50;50.00
26186;DHT22;20067;48.764;9.176;2023-06-14T09:40:04;26.20;49.10
26186;DHT22;20067;48.764;9.176;2023-06-14T09:42:30;25.00;50.30
26186;DHT22;20067;48.764;9.176;2023-06-14T09:44:57;24.30;52.20
26186;DHT22;20067;48.764;9.176;2023-06-14T09:47:25;23.90;53.50
26186;DHT22;20067;48.764;9.176;2023-06-14T09:49:51;24.30;52.90
26186;DHT22;20067;48.764;9.176;2023-06-14T09:52:20;24.00;53.40
26186;DHT22;20067;48.764;9.176;2023-06-14T09:54:47;24.20;53.30
26186;DHT22;20067;48.764;9.176;2023-06-14T09:57:16;24.00;53.60
26186;DHT22;20067;48.764;9.176;2023-06-14T09:59:46;24.10;53.70
26186;DHT22;20067;48.764;9.176;2023-06-14T10:02:25;24.90;52.20
26186;DHT22;20067;48.764;9.176;2023-06-14T10:07:38;25.40;52.00
26186;DHT22;20067;48.764;9.176;2023-06-14T10:10:06;25.80;50.10
26186;DHT22;20067;48.764;9.176;2023-06-14T10:12:32;25.30;48.80
26186;DHT22;20067;48.764;9.176;2023-06-14T10:14:58;24.80;50.40
26186;DHT22;20067;48.764;9.176;2023-06-14T10:17:49;24.30;51.50
26186;DHT22;20067;48.764;9.176;2023-06-14T10:20:28;23.70;52.20
26186;DHT22;20067;48.764;9.176;2023-06-14T10:23:03;24.00;52.60
26186;DHT22;20067;48.764;9.176;2023-06-14T10:25:31;24.10;49.90
26186;DHT22;20067;48.764;9.176;2023-06-14T10:30:37;24.70;50.40
26186;DHT22;20067;48.764;9.176;2023-06-14T10:33:07;25.30;49.20
26186;DHT22;20067;48.764;9.176;2023-06-14T10:35:33;25.20;48.70
26186;DHT22;20067;48.764;9.176;2023-06-14T10:38:10;25.00;49.40
26186;DHT22;20067;48.764;9.176;2023-06-14T10:40:37;25.10;49.90
26186;DHT22;20067;48.764;9.176;2023-06-14T10:43:21;25.20;49.70
26186;DHT22;20067;48.764;9.176;2023-06-14T10:46:14;24.80;50.80
26186;DHT22;20067;48.764;9.176;2023-06-14T10:48:41;24.60;51.60
26186;DHT22;20067;48.764;9.176;2023-06-14T10:51:17;24.10;51.60
26186;DHT22;20067;48.764;9.176;2023-06-14T10:53:49;25.00;49.60
26186;DHT22;20067;48.764;9.176;2023-06-14T10:56:27;25.40;48.80
26186;DHT22;20067;48.764;9.176;2023-06-14T10:58:53;25.30;51.10
26186;DHT22;20067;48.764;9.176;2023-06-14T11:01:35;25.40;49.20
26186;DHT22;20067;48.764;9.176;2023-06-14T11:04:09;25.90;48.40
26186;DHT22;20067;48.764;9.176;2023-06-14T11:07:04;26.30;46.80
26186;DHT22;20067;48.764;9.176;2023-06-14T11:12:36;29.90;42.30
26186;DHT22;20067;48.764;9.176;2023-06-14T11:15:05;31.20;40.10
26186;DHT22;20067;48.764;9.176;2023-06-14T11:17:33;32.30;38.50
26186;DHT22;20067;48.764;9.176;2023-06-14T11:20:11;33.00;36.80
26186;DHT22;20067;48.764;9.176;2023-06-14T11:22:42;31.70;38.60
26186;DHT22;20067;48.764;9.176;2023-06-14T11:25:11;32.50;38.10
26186;DHT22;20067;48.764;9.176;2023-06-14T11:27:38;34.70;36.40
26186;DHT22;20067;48.764;9.176;2023-06-14T11:30:06;37.70;33.00
26186;DHT22;20067;48.764;9.176;2023-06-14T11:32:32;37.10;33.00
26186;DHT22;20067;48.764;9.176;2023-06-14T11:34:58;36.80;32.30
26186;DHT22;20067;48.764;9.176;2023-06-14T11:37:26;35.70;33.20
26186;DHT22;20067;48.764;9.176;2023-06-14T11:39:56;32.60;35.70
26186;DHT22;20067;48.764;9.176;2023-06-14T11:42:22;29.90;39.50
26186;DHT22;20067;48.764;9.176;2023-06-14T11:44:49;29.40;40.90
26186;DHT22;20067;48.764;9.176;2023-06-14T11:47:14;29.10;40.00
26186;DHT22;20067;48.764;9.176;2023-06-14T11:49:40;26.50;42.30
26186;DHT22;20067;48.764;9.176;2023-06-14T11:52:06;27.00;43.60
26186;DHT22;20067;48.764;9.176;2023-06-14T11:54:34;30.20;39.50
26186;DHT22;20067;48.764;9.176;2023-06-14T11:57:00;32.40;37.00
26186;DHT22;20067;48.764;9.176;2023-06-14T11:59:26;34.60;34.60
26186;DHT22;20067;48.764;9.176;2023-06-14T12:01:53;35.50;34.10
26186;DHT22;20067;48.764;9.176;2023-06-14T12:04:29;35.90;32.40
26186;DHT22;20067;48.764;9.176;2023-06-14T12:06:55;33.20;34.60
26186;DHT22;20067;48.764;9.176;2023-06-14T12:09:21;32.90;35.30
26186;DHT22;20067;48.764;9.176;2023-06-14T12:11:50;33.30;35.10
26186;DHT22;20067;48.764;9.176;2023-06-14T12:14:16;33.00;34.80
26186;DHT22;20067;48.764;9.176;2023-06-14T12:16:42;32.10;35.60
26186;DHT22;20067;48.764;9.176;2023-06-14T12:19:13;33.20;35.00
26186;DHT22;20067;48.764;9.176;2023-06-14T12:21:39;33.20;35.60
26186;DHT22;20067;48.764;9.176;2023-06-14T12:24:08;34.80;33.50
26186;DHT22;20067;48.764;9.176;2023-06-14T12:26:40;33.50;34.30
26186;DHT22;20067;48.764;9.176;2023-06-14T12:29:07;32.10;35.90
26186;DHT22;20067;48.764;9.176;2023-06-14T12:31:33;33.60;35.70
26186;DHT22;20067;48.764;9.176;2023-06-14T12:34:03;36.60;32.00
26186;DHT22;20067;48.764;9.176;2023-06-14T12:36:28;34.80;33.30
26186;DHT22;20067;48.764;9.176;2023-06-14T12:38:54;32.70;35.00
26186;DHT22;20067;48.764;9.176;2023-06-14T12:41:21;30.00;38.20
26186;DHT22;20067;48.764;9.176;2023-06-14T12:43:47;29.40;39.10
26186;DHT22;20067;48.764;9.176;2023-06-14T12:46:13;28.50;40.50
26186;DHT22;20067;48.764;9.176;2023-06-14T12:48:39;27.70;42.40
26186;DHT22;20067;48.764;9.176;2023-06-14T12:51:04;27.30;43.10
26186;DHT22;20067;48.764;9.176;2023-06-14T12:53:30;27.30;43.00
26186;DHT22;20067;48.764;9.176;2023-06-14T12:55:56;29.50;41.40
26186;DHT22;20067;48.764;9.176;2023-06-14T12:58:21;30.20;39.70
26186;DHT22;20067;48.764;9.176;2023-06-14T13:00:49;30.30;39.90
26186;DHT22;20067;48.764;9.176;2023-06-14T13:03:15;29.80;39.80
26186;DHT22;20067;48.764;9.176;2023-06-14T13:05:40;31.80;37.20
26186;DHT22;20067;48.764;9.176;2023-06-14T13:08:07;31.20;37.50
26186;DHT22;20067;48.764;9.176;2023-06-14T13:10:34;32.50;37.40
26186;DHT22;20067;48.764;9.176;2023-06-14T13:13:00;32.90;35.60
26186;DHT22;20067;48.764;9.176;2023-06-14T13:15:26;33.60;34.70
26186;DHT22;20067;48.764;9.176;2023-06-14T13:17:52;32.70;35.80
26186;DHT22;20067;48.764;9.176;2023-06-14T13:20:18;31.30;36.80
26186;DHT22;20067;48.764;9.176;2023-06-14T13:22:44;31.40;37.20
26186;DHT22;20067;48.764;9.176;2023-06-14T13:25:10;34.60;34.40
26186;DHT22;20067;48.764;9.176;2023-06-14T13:27:36;35.80;32.90
26186;DHT22;20067;48.764;9.176;2023-06-14T13:30:03;35.10;33.10
26186;DHT22;20067;48.764;9.176;2023-06-14T13:32:31;35.60;33.10
26186;DHT22;20067;48.764;9.176;2023-06-14T13:34:56;35.30;32.10
26186;DHT22;20067;48.764;9.176;2023-06-14T13:37:23;35.90;32.10
26186;DHT22;20067;48.764;9.176;2023-06-14T13:39:48;34.10;34.00
26186;DHT22;20067;48.764;9.176;2023-06-14T13:42:14;32.90;36.30
26186;DHT22;20067;48.764;9.176;2023-06-14T13:44:40;34.00;35.60
26186;DHT22;20067;48.764;9.176;2023-06-14T13:47:06;33.60;35.00
26186;DHT22;20067;48.764;9.176;2023-06-14T13:49:31;34.80;33.90
26186;DHT22;20067;48.764;9.176;2023-06-14T13:52:00;34.30;34.40
26186;DHT22;20067;48.764;9.176;2023-06-14T13:54:27;34.00;34.40
26186;DHT22;20067;48.764;9.176;2023-06-14T13:56:53;33.40;34.90
26186;DHT22;20067;48.764;9.176;2023-06-14T13:59:18;31.60;37.00
26186;DHT22;20067;48.764;9.176;2023-06-14T14:01:44;31.00;38.00
26186;DHT22;20067;48.764;9.176;2023-06-14T14:04:10;30.30;39.00
26186;DHT22;20067;48.764;9.176;2023-06-14T14:06:36;29.90;40.00
26186;DHT22;20067;48.764;9.176;2023-06-14T14:09:02;29.40;39.90
26186;DHT22;20067;48.764;9.176;2023-06-14T14:11:28;29.30;41.40
26186;DHT22;20067;48.764;9.176;2023-06-14T14:13:54;30.50;39.30
26186;DHT22;20067;48.764;9.176;2023-06-14T14:16:20;32.80;37.10
26186;DHT22;20067;48.764;9.176;2023-06-14T14:18:46;34.30;34.70
26186;DHT22;20067;48.764;9.176;2023-06-14T14:21:12;33.70;35.50
26186;DHT22;20067;48.764;9.176;2023-06-14T14:23:37;33.90;35.40
26186;DHT22;20067;48.764;9.176;2023-06-14T14:26:03;31.90;37.00
26186;DHT22;20067;48.764;9.176;2023-06-14T14:28:30;29.90;39.10
26186;DHT22;20067;48.764;9.176;2023-06-14T14:30:56;28.50;41.70
26186;DHT22;20067;48.764;9.176;2023-06-14T14:33:22;27.60;42.90
26186;DHT22;20067;48.764;9.176;2023-06-14T14:35:47;26.60;44.70
26186;DHT22;20067;48.764;9.176;2023-06-14T14:38:14;26.50;45.50
26186;DHT22;20067;48.764;9.176;2023-06-14T14:40:41;26.20;46.20
26186;DHT22;20067;48.764;9.176;2023-06-14T14:43:07;26.20;46.60
26186;DHT22;20067;48.764;9.176;2023-06-14T14:45:33;26.00;46.70
26186;DHT22;20067;48.764;9.176;2023-06-14T14:48:00;26.20;47.80
26186;DHT22;20067;48.764;9.176;2023-06-14T14:50:26;26.00;46.40
26186;DHT22;20067;48.764;9.176;2023-06-14T14:52:52;26.20;46.90
26186;DHT22;20067;48.764;9.176;2023-06-14T14:55:17;25.80;46.90
26186;DHT22;20067;48.764;9.176;2023-06-14T14:57:45;26.30;47.00
26186;DHT22;20067;48.764;9.176;2023-06-14T15:00:10;27.50;45.00
26186;DHT22;20067;48.764;9.176;2023-06-14T15:02:36;27.80;43.70
26186;DHT22;20067;48.764;9.176;2023-06-14T15:05:02;27.20;44.00
26186;DHT22;20067;48.764;9.176;2023-06-14T15:07:28;26.80;44.70
26186;DHT22;20067;48.764;9.176;2023-06-14T15:09:55;27.40;44.50
26186;DHT22;20067;48.764;9.176;2023-06-14T15:12:20;27.60;44.20
26186;DHT22;20067;48.764;9.176;2023-06-14T15:14:50;27.70;43.70
26186;DHT22;20067;48.764;9.176;2023-06-14T15:17:17;27.20;43.80
26186;DHT22;20067;48.764;9.176;2023-06-14T15:19:44;27.60;44.10
26186;DHT22;20067;48.764;9.176;2023-06-14T15:22:10;27.90;43.30
26186;DHT22;20067;48.764;9.176;2023-06-14T15:24:35;27.70;44.00
26186;DHT22;20067;48.764;9.176;2023-06-14T15:27:01;27.40;44.60
26186;DHT22;20067;48.764;9.176;2023-06-14T15:29:26;27.70;45.10
26186;DHT22;20067;48.764;9.176;2023-06-14T15:31:52;27.40;44.40
26186;DHT22;20067;48.764;9.176;2023-06-14T15:34:20;27.20;45.20
26186;DHT22;20067;48.764;9.176;2023-06-14T15:36:46;27.20;44.70
26186;DHT22;20067;48.764;9.176;2023-06-14T15:39:11;27.20;44.80
26186;DHT22;20067;48.764;9.176;2023-06-14T15:41:37;27.00;44.60
26186;DHT22;20067;48.764;9.176;2023-06-14T15:44:03;27.10;45.00